• Join FlightAware (Why Join?)
  • Login
  • US Flag 
03:45PM EST


 

Airport Tracker/Info


-or-


 

Live Flight TrackerFlight Track Log ✈ UPS2332 ✈ 29-Aug-2013 ✈ KSDF - KMIA

Flight Track Log - Related Links

Times and Time Zones

All times are in EDT time to prevent confusion due to time zone crossing. See the UPS2332 flight status page for this flight to view local times or setup timezone preferences in your user account.

Time Position Orientation Groundspeed Altitude Reporting Facility
EDT Latitude Longitude Course Direction KTS MPH feet Rate Location/Type
05:03PM 38.1770 -85.7450 180° South 125 144  Level FlightAware
05:03PM 38.1560 -85.7390 167° South 173 199 1,300 2,700 Climbing FlightAware
05:03PM 38.1400 -85.7340 166° South 182 209 2,100 1,860 Climbing FlightAware
05:04PM 38.1300 -85.7330 176° South 201 231 2,300 1,380 Climbing FlightAware
05:04PM 38.1150 -85.7330 180° South 225 259 2,700 1,980 Climbing FlightAware
05:04PM 38.0920 -85.7360 186° South 242 278 3,500 1,020 Climbing FlightAware
05:05PM 38.0660 -85.7500 203° Southwest 244 281 3,600 2,220 Climbing FlightAware
05:06PM 38.0730 -85.8430 275° West 274 315 6,700 2,520 Climbing FlightAware
05:06PM 38.0750 -85.9010 273° West 275 316 7,400 2,340 Climbing FlightAware
05:07PM 38.0080 -86.0260 236° Southwest 339 390 11,200 2,400 Climbing FlightAware
05:08PM 37.9780 -86.0800 235° Southwest 373 429 11,900 1,620 Climbing FlightAware
05:08PM 37.9590 -86.1090 230° Southwest 391 450 12,500 2,580 Climbing FlightAware
05:09PM 37.9160 -86.1450 213° Southwest 406 467 13,800 2,580 Climbing FlightAware
05:09PM 37.8830 -86.1530 191° South 414 476 14,600 2,820 Climbing FlightAware
05:10PM 37.8110 -86.1380 171° South 424 488 16,400 2,820 Climbing FlightAware
05:10PM 37.7490 -86.1220 168° South 435 501 17,800 2,280 Climbing FlightAware
05:11PM 37.6730 -86.1130 175° South 451 519 19,100 1,380 Climbing FlightAware
05:12PM 37.5930 -86.1080 177° South 455 524 19,700 2,040 Climbing FlightAware
05:12PM 37.5090 -86.1030 177° South 477 549 21,700 1,620 Climbing FlightAware
05:13PM 37.4380 -86.0980 177° South 477 549 21,700  Level FlightAware
05:13PM 37.3710 -86.0940 177° South 477 549 21,700  Level FlightAware
05:14PM 37.3030 -86.0890 177° South 477 549 21,700 2,340 Level FlightAware
05:15PM 37.1810 -86.0770 176° South 503 579 24,600 2,820 Climbing FlightAware
05:15PM 37.0939 -86.0697 176° South 512 589 25,000 300 Climbing FlightAware ADS-B
05:16PM 37.0180 -86.0640 177° South 491 565 25,000 420 Level FlightAware
05:16PM 36.9352 -86.0516 173° South 495 570 25,500 1,200 Climbing FlightAware ADS-B
05:17PM 36.8643 -86.0412 173° South 510 587 26,300 1,440 Climbing FlightAware ADS-B
05:17PM 36.8009 -86.0311 173° South 520 598 26,900 1,680 Climbing FlightAware ADS-B
05:18PM 36.7286 -86.0135 169° South 522 601 27,900 1,920 Climbing FlightAware ADS-B
05:18PM 36.6565 -85.9968 169° South 525 604 28,900 1,020 Climbing FlightAware ADS-B
05:19PM 36.5860 -85.9810 170° South 530 610 29,000 780 Climbing FlightAware
05:19PM 36.4951 -85.9601 170° South 526 605 29,800 1,980 Climbing FlightAware ADS-B
05:20PM 36.4243 -85.9440 170° South 513 590 31,200 2,160 Climbing FlightAware ADS-B
05:21PM 36.3400 -85.9250 170° South 512 589 32,300 1,740 Climbing FlightAware
05:21PM 36.2875 -85.9131 170° South 512 589 32,900 840 Climbing FlightAware ADS-B
05:21PM 36.2148 -85.8967 170° South 516 594 33,000 60 Climbing FlightAware ADS-B
05:22PM 36.1429 -85.8805 170° South 518 596 33,000  Level FlightAware ADS-B
05:22PM 36.0711 -85.8643 170° South 516 594 33,000  Level FlightAware ADS-B
05:23PM 35.9997 -85.8480 170° South 514 592 33,000  Level FlightAware ADS-B
05:23PM 35.9241 -85.8310 170° South 513 590 33,000  Level FlightAware ADS-B
05:24PM 35.8068 -85.8045 170° South 511 588 33,000  Level FlightAware ADS-B
05:25PM 35.7363 -85.7887 170° South 511 588 33,000  Level FlightAware ADS-B
05:25PM 35.6664 -85.7731 170° South 510 587 33,000  Level FlightAware ADS-B
05:26PM 35.5941 -85.7569 170° South 511 588 33,000  Level FlightAware ADS-B
05:26PM 35.5242 -85.7413 170° South 511 588 33,000 840 Level FlightAware ADS-B
05:27PM 35.4527 -85.7253 170° South 507 583 33,900 1,740 Climbing FlightAware ADS-B
05:27PM 35.3806 -85.7093 170° South 504 580 34,800 1,680 Climbing FlightAware ADS-B
05:28PM 35.3030 -85.6920 170° South 500 575 35,800 1,620 Climbing FlightAware
05:28PM 35.2550 -85.6815 170° South 502 578 36,300 1,260 Climbing FlightAware ADS-B
05:29PM 35.1859 -85.6662 170° South 498 573 36,900 660 Climbing FlightAware ADS-B
05:29PM 35.1164 -85.6510 170° South 497 572 37,000 60 Climbing FlightAware ADS-B
05:30PM 35.0450 -85.6352 170° South 496 571 37,000  Level FlightAware ADS-B
05:30PM 34.9623 -85.6169 170° South 495 570 37,000  Level FlightAware ADS-B
05:31PM 34.8940 -85.6020 170° South 493 567 37,000  Level FlightAware ADS-B
05:31PM 34.8300 -85.5880 170° South 491 565 37,000  Level FlightAware
05:32PM 34.8076 -85.5830 170° South 492 566 37,000  Level FlightAware ADS-B
05:32PM 34.7014 -85.5597 170° South 492 566 37,000  Level FlightAware ADS-B
05:33PM 34.6048 -85.5387 170° South 491 565 37,000  Level FlightAware ADS-B
05:34PM 34.5140 -85.5190 170° South 490 564 37,000  Level FlightAware
05:34PM 34.4836 -85.5123 170° South 491 565 37,000  Level FlightAware ADS-B
05:35PM 34.3690 -85.4870 170° South 492 566 37,000  Level FlightAware
05:36PM 34.2500 -85.4620 170° South 493 567 37,000  Level FlightAware
05:36PM 34.2154 -85.4542 169° South 494 568 37,000  Level FlightAware ADS-B
05:36PM 34.1510 -85.4390 169° South 494 568 37,000  Level FlightAware
05:37PM 34.0830 -85.4230 169° South 494 568 37,000  Level FlightAware
05:38PM 34.0140 -85.4070 169° South 494 568 37,000  Level FlightAware
05:38PM 33.9400 -85.3900 169° South 494 568 37,000  Level FlightAware
05:39PM 33.8750 -85.3750 169° South 494 568 37,000  Level FlightAware
05:39PM 33.7420 -85.3530 172° South 495 570 37,000  Level FlightAware
05:40PM 33.6440 -85.3320 170° South 494 568 37,000  Level FlightAware
05:41PM 33.5710 -85.3160 170° South 493 567 37,000  Level FlightAware
05:41PM 33.4910 -85.2990 170° South 493 567 37,000  Level FlightAware
05:42PM 33.4130 -85.2830 170° South 492 566 37,000  Level FlightAware
05:42PM 33.3370 -85.2670 170° South 491 565 37,000  Level FlightAware
05:43PM 33.2510 -85.2480 170° South 491 565 37,000  Level FlightAware
05:44PM 33.1790 -85.2330 170° South 490 564 37,000  Level FlightAware
05:44PM 33.1100 -85.2190 170° South 490 564 37,000  Level FlightAware
05:45PM 33.0190 -85.1950 168° South 489 563 37,000  Level FlightAware
05:45PM 32.9330 -85.1670 165° South 488 562 37,000  Level FlightAware
05:46PM 32.8610 -85.1410 163° South 488 562 37,000  Level FlightAware
05:47PM 32.7950 -85.1170 163° South 488 562 37,000  Level FlightAware
05:47PM 32.6960 -85.0850 165° South 483 556 37,000  Level FlightAware
05:48PM 32.6220 -85.0590 164° South 483 556 37,000  Level FlightAware
05:49PM 32.5570 -85.0350 163° South 483 556 37,000  Level FlightAware
05:49PM 32.4730 -85.0090 165° South 478 550 37,000  Level FlightAware
05:50PM 32.3900 -84.9810 164° South 477 549 37,000  Level FlightAware
05:50PM 32.3080 -84.9540 164° South 477 549 37,000  Level FlightAware
05:51PM 32.2420 -84.9310 164° South 477 549 37,000  Level FlightAware
05:51PM 32.1740 -84.9090 165° South 477 549 37,000  Level FlightAware
05:52PM 32.1080 -84.8850 163° South 477 549 37,000  Level FlightAware
05:53PM 32.0400 -84.8600 163° South 477 549 37,000  Level FlightAware
05:53PM 31.9770 -84.8380 163° South 477 549 37,000  Level FlightAware
05:54PM 31.9110 -84.8140 163° South 477 549 37,000  Level FlightAware
05:54PM 31.8440 -84.7900 163° South 477 549 37,000  Level FlightAware
05:55PM 31.6770 -84.7420 166° South 480 552 37,000  Level FlightAware
05:56PM 31.6120 -84.7200 164° South 480 552 37,000  Level FlightAware
05:57PM 31.5430 -84.6970 164° South 480 552 37,000  Level FlightAware
05:57PM 31.4770 -84.6750 164° South 480 552 37,000  Level FlightAware
05:58PM 31.4100 -84.6520 164° South 480 552 37,000  Level FlightAware
05:58PM 31.3450 -84.6300 164° South 480 552 37,000  Level FlightAware
05:59PM 31.2790 -84.6080 164° South 480 552 37,000  Level FlightAware
06:00PM 31.2110 -84.5850 164° South 480 552 37,000  Level FlightAware
06:00PM 31.1450 -84.5630 164° South 480 552 37,000  Level FlightAware
06:01PM 31.0380 -84.4200 131° Southeast 125 144 37,000  Level FlightAware
06:01PM 30.9170 -84.3520 154° Southeast 482 555 37,000  Level FlightAware
06:02PM 31.0380 -84.4200 334° Northwest 480 552 37,000  Level FlightAware
06:03PM 30.7580 -84.2630 154° Southeast 480 552 37,000  Level FlightAware
06:03PM 30.6880 -84.2240 154° Southeast 480 552 37,000  Level FlightAware
06:04PM 30.6170 -84.1840 154° Southeast 480 552 37,000  Level FlightAware
06:05PM 30.5470 -84.1450 154° Southeast 480 552 37,000  Level FlightAware
06:05PM 30.4820 -84.1100 155° Southeast 479 551 37,000  Level FlightAware
06:06PM 30.3990 -84.0630 154° Southeast 478 550 37,000  Level FlightAware
06:06PM 30.3370 -84.0290 155° Southeast 478 550 37,000  Level FlightAware
06:07PM 30.2360 -83.9730 154° Southeast 478 550 37,000  Level FlightAware
06:08PM 30.1710 -83.9370 154° Southeast 479 551 37,000  Level FlightAware
06:08PM 30.0950 -83.8950 154° Southeast 478 550 37,000  Level FlightAware
06:09PM 30.0230 -83.8550 154° Southeast 478 550 37,000  Level FlightAware
06:10PM 29.9520 -83.8170 155° Southeast 478 550 37,000  Level FlightAware
06:10PM 29.8790 -83.7770 155° Southeast 478 550 37,000  Level FlightAware
06:11PM 29.8320 -83.7510 154° Southeast 478 550 37,000  Level FlightAware
06:11PM 29.7440 -83.7030 155° Southeast 477 549 37,000  Level FlightAware
06:12PM 29.6750 -83.6650 154° Southeast 477 549 37,000  Level FlightAware
06:12PM 29.6050 -83.6270 155° Southeast 469 540 37,000  Level FlightAware
06:13PM 29.5350 -83.5890 155° Southeast 468 539 37,000  Level FlightAware
06:14PM 29.4650 -83.5510 155° Southeast 468 539 37,000  Level FlightAware
06:14PM 29.3960 -83.5130 154° Southeast 466 536 37,000  Level FlightAware
06:15PM 29.3260 -83.4750 155° Southeast 465 535 37,000  Level FlightAware
06:15PM 29.2560 -83.4380 155° Southeast 465 535 37,000  Level FlightAware
06:16PM 29.1670 -83.3900 155° Southeast 465 535 37,000  Level FlightAware
06:17PM 29.1080 -83.3580 155° Southeast 464 534 37,000  Level FlightAware
06:17PM 29.0390 -83.3210 155° Southeast 464 534 37,000  Level FlightAware
06:18PM 28.9700 -83.2840 155° Southeast 463 533 37,000  Level FlightAware
06:18PM 28.8890 -83.2400 155° Southeast 463 533 37,000  Level FlightAware
06:19PM 28.8300 -83.2080 155° Southeast 462 532 37,000  Level FlightAware
06:20PM 28.7610 -83.1710 155° Southeast 463 533 37,000  Level FlightAware
06:20PM 28.6820 -83.1290 155° Southeast 463 533 37,000  Level FlightAware
06:21PM 28.6250 -83.0990 155° Southeast 463 533 37,000  Level FlightAware
06:21PM 28.5440 -83.0560 155° Southeast 463 533 37,000  Level FlightAware
06:22PM 28.4650 -83.0140 155° Southeast 462 532 37,000  Level FlightAware
06:23PM 28.3970 -82.9770 154° Southeast 462 532 37,000  Level FlightAware
06:23PM 28.3280 -82.9410 155° Southeast 463 533 37,000  Level FlightAware
06:24PM 28.2490 -82.8990 155° Southeast 463 533 37,000  Level FlightAware
06:24PM 28.1800 -82.8630 155° Southeast 463 533 37,000  Level FlightAware
06:25PM 28.1110 -82.8260 155° Southeast 464 534 37,000  Level FlightAware
06:26PM 28.0420 -82.7900 155° Southeast 464 534 37,000  Level FlightAware
06:26PM 27.9520 -82.7440 156° South 471 542 37,000  Level FlightAware
06:27PM 27.8910 -82.7190 160° South 472 543 37,000  Level FlightAware
06:27PM 27.8180 -82.6920 162° South 472 543 37,000  Level FlightAware
06:28PM 27.7350 -82.6600 161° South 471 542 37,000  Level FlightAware
06:29PM 27.6590 -82.6420 168° South 474 545 37,000  Level FlightAware
06:29PM 27.5880 -82.6340 174° South 467 537 37,000  Level FlightAware
06:30PM 27.5070 -82.6250 174° South 467 537 37,000  Level FlightAware
06:30PM 27.4290 -82.6170 175° South 466 536 37,000  Level FlightAware
06:31PM 27.3640 -82.6080 173° South 464 534 37,000  Level FlightAware
06:32PM 27.2950 -82.5780 159° South 457 526 37,000  Level FlightAware
06:32PM 27.2220 -82.5270 148° Southeast 460 529 37,000  Level FlightAware
06:33PM 27.1680 -82.4890 148° Southeast 460 529 37,000 -120 Level FlightAware
06:33PM 27.1050 -82.4440 148° Southeast 456 525 36,900 -180 Descending FlightAware
06:34PM 27.0500 -82.4040 147° Southeast 456 525 36,800 -1,440 Descending FlightAware
06:35PM 26.9650 -82.3450 148° Southeast 466 536 35,100 -1,500 Descending FlightAware
06:35PM 26.8960 -82.2950 147° Southeast 462 532 34,700 -1,500 Descending FlightAware
06:36PM 26.7870 -82.2200 148° Southeast 479 551 32,600 -1,980 Descending FlightAware
06:37PM 26.7120 -82.1670 148° Southeast 483 556 31,700 -1,500 Descending FlightAware
06:37PM 26.6440 -82.1190 148° Southeast 494 568 30,900 -1,380 Descending FlightAware
06:38PM 26.5770 -82.0730 148° Southeast 495 570 30,100 -1,200 Descending FlightAware
06:39PM 26.5100 -82.0260 148° Southeast 489 563 29,500 -1,200 Descending FlightAware
06:39PM 26.4420 -81.9780 148° Southeast 490 564 28,700 -1,380 Descending FlightAware
06:40PM 26.3730 -81.9300 148° Southeast 493 567 27,900 -1,140 Descending FlightAware
06:40PM 26.2970 -81.8770 148° Southeast 478 550 27,300 -1,140 Descending FlightAware
06:41PM 26.2400 -81.8380 148° Southeast 473 544 26,600 -2,160 Descending FlightAware
06:42PM 26.1700 -81.7820 144° Southeast 464 534 24,800 -2,400 Descending FlightAware
06:42PM 26.1410 -81.7330 123° Southeast 447 514 24,000 -2,460 Descending FlightAware
06:43PM 26.1140 -81.6560 111° Southeast 446 513 22,300 -2,700 Descending FlightAware
06:43PM 26.0910 -81.5840 110° East 440 506 20,900 -2,760 Descending FlightAware
06:44PM 26.0660 -81.5070 110° East 428 493 19,100 -3,000 Descending FlightAware
06:44PM 26.0440 -81.4390 110° East 419 482 17,400 -2,820 Descending FlightAware
06:45PM 26.0210 -81.3660 109° East 418 481 15,800 -2,700 Descending FlightAware
06:45PM 25.9980 -81.2950 110° East 416 479 14,300 -2,640 Descending FlightAware
06:46PM 25.9740 -81.2230 110° East 415 478 12,800 -2,580 Descending FlightAware
06:47PM 25.9520 -81.1550 110° East 404 465 11,300 -1,920 Descending FlightAware
06:47PM 25.9310 -81.0880 109° East 375 432 10,600 -960 Descending FlightAware
06:47PM 25.9230 -81.0590 107° East 364 419 10,500 -480 Descending FlightAware
06:48PM 25.9220 -80.9720 91° East 329 379 10,100 -420 Descending FlightAware
06:49PM 25.9130 -80.9270 103° East 295 339 10,000 -780 Descending FlightAware
06:49PM 25.8940 -80.8960 124° Southeast 294 338 9,400 -1,440 Descending FlightAware
06:50PM 25.8790 -80.8700 123° Southeast 299 344 8,900 -1,500 Descending FlightAware
06:50PM 25.8680 -80.8420 114° Southeast 291 335 8,400 -1,800 Descending FlightAware
06:50PM 25.8590 -80.8210 115° Southeast 289 333 7,900 -1,980 Descending FlightAware
06:50PM 25.8480 -80.7950 115° Southeast 285 328 7,300 -1,980 Descending FlightAware
06:51PM 25.8360 -80.7690 117° Southeast 284 327 6,600 -2,100 Descending FlightAware
06:51PM 25.8220 -80.7380 117° Southeast 279 321 5,700 -2,160 Descending FlightAware
06:52PM 25.8150 -80.7100 106° East 272 313 5,000 -1,860 Descending FlightAware
06:52PM 25.8110 -80.6860 100° East 270 311 4,400 -1,800 Descending FlightAware
06:52PM 25.8060 -80.6540 100° East 268 308 3,800 -1,320 Descending FlightAware
06:53PM 25.8020 -80.6210 98° East 259 298 3,500 -720 Descending FlightAware
06:53PM 25.7980 -80.5950 100° East 248 285 3,300 -600 Descending FlightAware
06:53PM 25.7950 -80.5700 98° East 239 275 3,100 -540 Descending FlightAware
06:54PM 25.7930 -80.5530 97° East 235 270 3,000 -180 Descending FlightAware
06:54PM 25.7930 -80.5260 90° East 236 272 3,000  Level FlightAware
06:54PM 25.7940 -80.5030 87° East 227 261 3,000  Level FlightAware
06:55PM 25.7950 -80.4810 87° East 212 244 3,000 -420 Level FlightAware
06:55PM 25.7960 -80.4550 88° East 209 241 2,700 -960 Descending FlightAware
06:55PM 25.7970 -80.4340 87° East 192 221 2,300 -960 Descending FlightAware
06:56PM 25.7990 -80.4060 85° East 167 192 1,900 -840 Descending FlightAware
06:56PM 25.7990 -80.3890 90° East 158 182 1,600 -900 Descending FlightAware
06:56PM 25.8000 -80.3730 86° East 149 171 1,300 -900 Descending FlightAware
06:57PM 25.8010 -80.3580 86° East 140 161 1,000 -840 Descending FlightAware
06:57PM 25.8010 -80.3400 90° East 140 161 700 -720 Descending FlightAware
06:58PM 25.8020 -80.3270 85° East 140 161 500 -840 Descending FlightAware
06:58PM 25.8030 -80.3060 87° East 139 160 100 -960 Descending FlightAware
06:58PM 25.8030 -80.2940 90° East 130 150 -360 Descending FlightAware
06:59PM 25.8040 -80.2780 86° East 70 81  Level FlightAware